sensor_id;sensor_type;location;lat;lon;timestamp;P1;durP1;ratioP1;P2;durP2;ratioP2
20415;SDS011;10367;52.202;5.996;2024-03-23T00:53:49;42.23;;;18.03;;
20415;SDS011;10367;52.202;5.996;2024-03-23T00:56:16;42.13;;;18.43;;
20415;SDS011;10367;52.202;5.996;2024-03-23T00:58:44;46.47;;;18.63;;
20415;SDS011;10367;52.202;5.996;2024-03-23T01:01:11;47.20;;;19.83;;
20415;SDS011;10367;52.202;5.996;2024-03-23T01:03:38;39.87;;;18.67;;
20415;SDS011;10367;52.202;5.996;2024-03-23T01:06:05;41.67;;;18.17;;
20415;SDS011;10367;52.202;5.996;2024-03-23T01:08:33;42.33;;;17.17;;
20415;SDS011;10367;52.202;5.996;2024-03-23T01:11:01;41.83;;;16.17;;
20415;SDS011;10367;52.202;5.996;2024-03-23T01:13:30;36.00;;;16.63;;
20415;SDS011;10367;52.202;5.996;2024-03-23T01:15:56;31.90;;;15.67;;
20415;SDS011;10367;52.202;5.996;2024-03-23T01:18:24;45.93;;;19.03;;
20415;SDS011;10367;52.202;5.996;2024-03-23T01:20:52;34.73;;;15.97;;
20415;SDS011;10367;52.202;5.996;2024-03-23T01:23:19;30.63;;;17.07;;
20415;SDS011;10367;52.202;5.996;2024-03-23T01:25:51;41.30;;;19.03;;
20415;SDS011;10367;52.202;5.996;2024-03-23T01:28:20;38.13;;;16.80;;
20415;SDS011;10367;52.202;5.996;2024-03-23T01:30:48;53.90;;;18.53;;
20415;SDS011;10367;52.202;5.996;2024-03-23T01:33:15;33.47;;;15.60;;
20415;SDS011;10367;52.202;5.996;2024-03-23T01:35:42;37.00;;;16.70;;
20415;SDS011;10367;52.202;5.996;2024-03-23T01:38:10;37.83;;;16.67;;
20415;SDS011;10367;52.202;5.996;2024-03-23T01:40:36;38.57;;;16.33;;
20415;SDS011;10367;52.202;5.996;2024-03-23T01:43:04;40.20;;;17.43;;
20415;SDS011;10367;52.202;5.996;2024-03-23T01:45:35;39.93;;;18.13;;
20415;SDS011;10367;52.202;5.996;2024-03-23T01:48:03;31.40;;;15.30;;
20415;SDS011;10367;52.202;5.996;2024-03-23T01:50:30;29.93;;;16.53;;
20415;SDS011;10367;52.202;5.996;2024-03-23T01:52:59;36.53;;;16.50;;
20415;SDS011;10367;52.202;5.996;2024-03-23T01:55:28;43.50;;;18.00;;
20415;SDS011;10367;52.202;5.996;2024-03-23T01:57:56;32.90;;;17.70;;
20415;SDS011;10367;52.202;5.996;2024-03-23T02:00:23;44.73;;;17.93;;
20415;SDS011;10367;52.202;5.996;2024-03-23T02:02:52;29.33;;;14.80;;
20415;SDS011;10367;52.202;5.996;2024-03-23T02:05:19;37.10;;;15.73;;
20415;SDS011;10367;52.202;5.996;2024-03-23T02:07:47;42.07;;;18.00;;
20415;SDS011;10367;52.202;5.996;2024-03-23T02:10:13;33.27;;;16.70;;
20415;SDS011;10367;52.202;5.996;2024-03-23T02:12:41;49.90;;;18.80;;
20415;SDS011;10367;52.202;5.996;2024-03-23T02:15:07;37.87;;;15.63;;
20415;SDS011;10367;52.202;5.996;2024-03-23T02:17:35;41.13;;;18.60;;
20415;SDS011;10367;52.202;5.996;2024-03-23T02:20:04;39.73;;;18.93;;
20415;SDS011;10367;52.202;5.996;2024-03-23T02:22:36;38.67;;;20.73;;
20415;SDS011;10367;52.202;5.996;2024-03-23T02:25:05;43.03;;;18.17;;
20415;SDS011;10367;52.202;5.996;2024-03-23T02:27:33;34.27;;;17.70;;
20415;SDS011;10367;52.202;5.996;2024-03-23T02:30:01;45.87;;;18.97;;
20415;SDS011;10367;52.202;5.996;2024-03-23T02:32:29;47.43;;;20.33;;
20415;SDS011;10367;52.202;5.996;2024-03-23T02:34:56;53.57;;;20.17;;
20415;SDS011;10367;52.202;5.996;2024-03-23T02:37:24;39.03;;;19.27;;
20415;SDS011;10367;52.202;5.996;2024-03-23T02:39:51;45.57;;;18.43;;
20415;SDS011;10367;52.202;5.996;2024-03-23T02:42:20;37.07;;;17.57;;
20415;SDS011;10367;52.202;5.996;2024-03-23T02:44:46;39.70;;;19.33;;
20415;SDS011;10367;52.202;5.996;2024-03-23T02:47:14;47.10;;;19.17;;
20415;SDS011;10367;52.202;5.996;2024-03-23T02:49:41;45.03;;;18.87;;
20415;SDS011;10367;52.202;5.996;2024-03-23T02:52:08;44.37;;;18.53;;
20415;SDS011;10367;52.202;5.996;2024-03-23T02:54:35;49.63;;;20.67;;
20415;SDS011;10367;52.202;5.996;2024-03-23T02:57:03;55.93;;;19.87;;
20415;SDS011;10367;52.202;5.996;2024-03-23T02:59:31;40.00;;;18.10;;
20415;SDS011;10367;52.202;5.996;2024-03-23T03:01:59;40.43;;;18.73;;
20415;SDS011;10367;52.202;5.996;2024-03-23T03:04:27;35.17;;;17.30;;
20415;SDS011;10367;52.202;5.996;2024-03-23T03:06:54;45.50;;;20.40;;
20415;SDS011;10367;52.202;5.996;2024-03-23T03:09:21;52.80;;;20.50;;
20415;SDS011;10367;52.202;5.996;2024-03-23T03:11:49;40.37;;;19.27;;
20415;SDS011;10367;52.202;5.996;2024-03-23T03:14:15;42.60;;;18.70;;
20415;SDS011;10367;52.202;5.996;2024-03-23T03:16:44;42.13;;;19.50;;
20415;SDS011;10367;52.202;5.996;2024-03-23T03:19:11;37.83;;;20.37;;
20415;SDS011;10367;52.202;5.996;2024-03-23T03:21:39;44.50;;;19.97;;
20415;SDS011;10367;52.202;5.996;2024-03-23T03:24:06;55.07;;;20.83;;
20415;SDS011;10367;52.202;5.996;2024-03-23T03:26:34;52.93;;;20.90;;
20415;SDS011;10367;52.202;5.996;2024-03-23T03:29:00;40.63;;;17.70;;
20415;SDS011;10367;52.202;5.996;2024-03-23T03:31:28;41.50;;;19.23;;
20415;SDS011;10367;52.202;5.996;2024-03-23T03:33:57;42.40;;;18.87;;
20415;SDS011;10367;52.202;5.996;2024-03-23T03:36:24;49.33;;;20.00;;
20415;SDS011;10367;52.202;5.996;2024-03-23T03:38:51;44.37;;;19.30;;
20415;SDS011;10367;52.202;5.996;2024-03-23T03:41:18;41.40;;;18.00;;
20415;SDS011;10367;52.202;5.996;2024-03-23T03:43:45;60.47;;;21.50;;
20415;SDS011;10367;52.202;5.996;2024-03-23T03:46:13;46.47;;;16.77;;
20415;SDS011;10367;52.202;5.996;2024-03-23T03:48:40;51.10;;;20.17;;
20415;SDS011;10367;52.202;5.996;2024-03-23T03:51:09;40.47;;;17.53;;
20415;SDS011;10367;52.202;5.996;2024-03-23T03:53:35;38.17;;;19.23;;
20415;SDS011;10367;52.202;5.996;2024-03-23T03:56:03;42.50;;;18.10;;
20415;SDS011;10367;52.202;5.996;2024-03-23T03:58:30;51.17;;;18.50;;
20415;SDS011;10367;52.202;5.996;2024-03-23T04:00:58;52.67;;;20.37;;
20415;SDS011;10367;52.202;5.996;2024-03-23T04:03:24;41.40;;;18.50;;
20415;SDS011;10367;52.202;5.996;2024-03-23T04:05:52;37.33;;;18.63;;
20415;SDS011;10367;52.202;5.996;2024-03-23T04:08:21;48.47;;;19.50;;
20415;SDS011;10367;52.202;5.996;2024-03-23T04:10:49;44.93;;;19.20;;
20415;SDS011;10367;52.202;5.996;2024-03-23T04:13:15;38.43;;;19.30;;
20415;SDS011;10367;52.202;5.996;2024-03-23T04:15:43;46.60;;;19.87;;
20415;SDS011;10367;52.202;5.996;2024-03-23T04:18:10;48.53;;;20.33;;
20415;SDS011;10367;52.202;5.996;2024-03-23T04:20:37;45.73;;;19.73;;
20415;SDS011;10367;52.202;5.996;2024-03-23T04:23:04;38.83;;;18.10;;
20415;SDS011;10367;52.202;5.996;2024-03-23T04:25:33;46.00;;;18.97;;
20415;SDS011;10367;52.202;5.996;2024-03-23T04:28:00;43.43;;;16.90;;
20415;SDS011;10367;52.202;5.996;2024-03-23T04:30:27;48.07;;;20.53;;
20415;SDS011;10367;52.202;5.996;2024-03-23T04:32:55;37.57;;;17.07;;
20415;SDS011;10367;52.202;5.996;2024-03-23T04:35:24;44.23;;;17.97;;
20415;SDS011;10367;52.202;5.996;2024-03-23T04:37:51;43.73;;;18.47;;
20415;SDS011;10367;52.202;5.996;2024-03-23T04:40:19;48.57;;;20.97;;
20415;SDS011;10367;52.202;5.996;2024-03-23T04:42:48;42.93;;;17.73;;
20415;SDS011;10367;52.202;5.996;2024-03-23T04:45:16;37.60;;;18.70;;
20415;SDS011;10367;52.202;5.996;2024-03-23T04:47:44;43.40;;;18.10;;
20415;SDS011;10367;52.202;5.996;2024-03-23T04:50:11;33.60;;;16.20;;
20415;SDS011;10367;52.202;5.996;2024-03-23T04:52:39;40.40;;;18.63;;
20415;SDS011;10367;52.202;5.996;2024-03-23T04:55:06;42.27;;;17.47;;
20415;SDS011;10367;52.202;5.996;2024-03-23T04:57:34;40.80;;;17.63;;
20415;SDS011;10367;52.202;5.996;2024-03-23T05:00:02;42.60;;;18.23;;
20415;SDS011;10367;52.202;5.996;2024-03-23T05:02:40;37.10;;;17.17;;
20415;SDS011;10367;52.202;5.996;2024-03-23T05:05:07;45.33;;;18.63;;
20415;SDS011;10367;52.202;5.996;2024-03-23T05:07:35;49.53;;;18.57;;
20415;SDS011;10367;52.202;5.996;2024-03-23T05:10:02;40.93;;;16.60;;
20415;SDS011;10367;52.202;5.996;2024-03-23T05:12:29;39.70;;;17.07;;
20415;SDS011;10367;52.202;5.996;2024-03-23T05:14:57;45.20;;;18.33;;
20415;SDS011;10367;52.202;5.996;2024-03-23T05:17:26;35.80;;;16.03;;
20415;SDS011;10367;52.202;5.996;2024-03-23T05:19:52;36.37;;;16.33;;
20415;SDS011;10367;52.202;5.996;2024-03-23T05:22:20;37.20;;;16.37;;
20415;SDS011;10367;52.202;5.996;2024-03-23T05:24:47;41.10;;;17.60;;
20415;SDS011;10367;52.202;5.996;2024-03-23T05:27:14;48.00;;;18.73;;
20415;SDS011;10367;52.202;5.996;2024-03-23T05:29:41;40.33;;;16.57;;
20415;SDS011;10367;52.202;5.996;2024-03-23T05:32:09;30.30;;;15.27;;
20415;SDS011;10367;52.202;5.996;2024-03-23T05:34:37;41.43;;;16.93;;
20415;SDS011;10367;52.202;5.996;2024-03-23T05:37:05;29.03;;;14.77;;
20415;SDS011;10367;52.202;5.996;2024-03-23T05:39:31;37.50;;;14.37;;
20415;SDS011;10367;52.202;5.996;2024-03-23T05:42:02;25.37;;;14.07;;
20415;SDS011;10367;52.202;5.996;2024-03-23T05:44:29;43.27;;;15.37;;
20415;SDS011;10367;52.202;5.996;2024-03-23T05:46:57;32.60;;;15.03;;
20415;SDS011;10367;52.202;5.996;2024-03-23T05:49:24;34.67;;;15.17;;
20415;SDS011;10367;52.202;5.996;2024-03-23T05:51:53;44.80;;;16.20;;
20415;SDS011;10367;52.202;5.996;2024-03-23T05:54:21;40.20;;;14.50;;
20415;SDS011;10367;52.202;5.996;2024-03-23T05:56:49;27.67;;;13.63;;
20415;SDS011;10367;52.202;5.996;2024-03-23T05:59:16;37.53;;;14.40;;
20415;SDS011;10367;52.202;5.996;2024-03-23T06:01:44;37.77;;;14.60;;
20415;SDS011;10367;52.202;5.996;2024-03-23T06:04:12;35.50;;;14.20;;
20415;SDS011;10367;52.202;5.996;2024-03-23T06:06:40;36.73;;;15.30;;
20415;SDS011;10367;52.202;5.996;2024-03-23T06:09:08;26.57;;;13.90;;
20415;SDS011;10367;52.202;5.996;2024-03-23T06:11:36;29.73;;;13.73;;
20415;SDS011;10367;52.202;5.996;2024-03-23T06:14:02;33.47;;;14.80;;
20415;SDS011;10367;52.202;5.996;2024-03-23T06:16:30;38.50;;;14.20;;
20415;SDS011;10367;52.202;5.996;2024-03-23T06:18:57;41.07;;;13.97;;
20415;SDS011;10367;52.202;5.996;2024-03-23T06:21:25;30.17;;;14.23;;
20415;SDS011;10367;52.202;5.996;2024-03-23T06:23:52;32.67;;;14.00;;
20415;SDS011;10367;52.202;5.996;2024-03-23T06:26:21;32.50;;;13.63;;
20415;SDS011;10367;52.202;5.996;2024-03-23T06:28:48;32.57;;;13.07;;
20415;SDS011;10367;52.202;5.996;2024-03-23T06:31:16;25.40;;;13.67;;
20415;SDS011;10367;52.202;5.996;2024-03-23T06:33:44;41.97;;;13.20;;
20415;SDS011;10367;52.202;5.996;2024-03-23T06:36:11;23.47;;;11.60;;
20415;SDS011;10367;52.202;5.996;2024-03-23T06:38:38;31.40;;;14.00;;
20415;SDS011;10367;52.202;5.996;2024-03-23T06:41:06;25.70;;;12.07;;
20415;SDS011;10367;52.202;5.996;2024-03-23T06:43:34;26.13;;;12.07;;
20415;SDS011;10367;52.202;5.996;2024-03-23T06:46:02;25.20;;;11.97;;
20415;SDS011;10367;52.202;5.996;2024-03-23T06:48:30;28.57;;;11.93;;
20415;SDS011;10367;52.202;5.996;2024-03-23T06:50:58;26.67;;;12.20;;
20415;SDS011;10367;52.202;5.996;2024-03-23T06:53:25;28.57;;;12.30;;
20415;SDS011;10367;52.202;5.996;2024-03-23T06:55:53;29.20;;;13.47;;
20415;SDS011;10367;52.202;5.996;2024-03-23T06:58:21;18.60;;;9.70;;
20415;SDS011;10367;52.202;5.996;2024-03-23T07:00:52;24.53;;;11.70;;
20415;SDS011;10367;52.202;5.996;2024-03-23T07:03:18;29.63;;;11.80;;
20415;SDS011;10367;52.202;5.996;2024-03-23T07:05:47;25.20;;;11.53;;
20415;SDS011;10367;52.202;5.996;2024-03-23T07:08:14;32.17;;;11.23;;
20415;SDS011;10367;52.202;5.996;2024-03-23T07:10:46;26.80;;;12.10;;
20415;SDS011;10367;52.202;5.996;2024-03-23T07:13:13;21.70;;;10.80;;
20415;SDS011;10367;52.202;5.996;2024-03-23T07:15:41;20.63;;;10.57;;
20415;SDS011;10367;52.202;5.996;2024-03-23T07:18:09;27.63;;;11.80;;
20415;SDS011;10367;52.202;5.996;2024-03-23T07:20:37;32.00;;;11.90;;
20415;SDS011;10367;52.202;5.996;2024-03-23T07:23:03;21.33;;;10.77;;
20415;SDS011;10367;52.202;5.996;2024-03-23T07:25:31;38.60;;;11.30;;
20415;SDS011;10367;52.202;5.996;2024-03-23T07:27:58;19.93;;;9.90;;
20415;SDS011;10367;52.202;5.996;2024-03-23T07:30:26;22.47;;;10.73;;
20415;SDS011;10367;52.202;5.996;2024-03-23T07:32:52;26.33;;;11.50;;
20415;SDS011;10367;52.202;5.996;2024-03-23T07:35:21;27.17;;;11.47;;
20415;SDS011;10367;52.202;5.996;2024-03-23T07:37:48;35.07;;;13.83;;
20415;SDS011;10367;52.202;5.996;2024-03-23T07:40:16;19.03;;;10.77;;
20415;SDS011;10367;52.202;5.996;2024-03-23T07:42:42;38.03;;;15.07;;
20415;SDS011;10367;52.202;5.996;2024-03-23T07:45:10;23.17;;;11.57;;
20415;SDS011;10367;52.202;5.996;2024-03-23T07:47:37;26.93;;;12.70;;
20415;SDS011;10367;52.202;5.996;2024-03-23T07:50:05;25.40;;;10.53;;
20415;SDS011;10367;52.202;5.996;2024-03-23T07:52:34;26.37;;;12.03;;
20415;SDS011;10367;52.202;5.996;2024-03-23T07:55:01;18.50;;;10.67;;
20415;SDS011;10367;52.202;5.996;2024-03-23T07:57:29;24.17;;;12.00;;
20415;SDS011;10367;52.202;5.996;2024-03-23T07:59:58;27.47;;;12.77;;
20415;SDS011;10367;52.202;5.996;2024-03-23T08:02:25;21.97;;;10.97;;
20415;SDS011;10367;52.202;5.996;2024-03-23T08:04:52;26.03;;;13.17;;
20415;SDS011;10367;52.202;5.996;2024-03-23T08:07:19;20.60;;;10.20;;
20415;SDS011;10367;52.202;5.996;2024-03-23T08:09:48;21.10;;;11.43;;
20415;SDS011;10367;52.202;5.996;2024-03-23T08:12:14;21.23;;;12.33;;
20415;SDS011;10367;52.202;5.996;2024-03-23T08:14:42;21.70;;;12.73;;
20415;SDS011;10367;52.202;5.996;2024-03-23T08:17:09;23.23;;;12.20;;
20415;SDS011;10367;52.202;5.996;2024-03-23T08:19:36;32.63;;;15.03;;
20415;SDS011;10367;52.202;5.996;2024-03-23T08:22:03;23.67;;;13.73;;
20415;SDS011;10367;52.202;5.996;2024-03-23T08:24:31;33.90;;;13.37;;
20415;SDS011;10367;52.202;5.996;2024-03-23T08:26:59;14.00;;;9.60;;
20415;SDS011;10367;52.202;5.996;2024-03-23T08:29:26;23.37;;;13.17;;
20415;SDS011;10367;52.202;5.996;2024-03-23T08:31:53;25.63;;;11.90;;
20415;SDS011;10367;52.202;5.996;2024-03-23T08:34:21;21.10;;;12.50;;
20415;SDS011;10367;52.202;5.996;2024-03-23T08:36:47;26.73;;;14.83;;
20415;SDS011;10367;52.202;5.996;2024-03-23T08:39:15;22.37;;;11.80;;
20415;SDS011;10367;52.202;5.996;2024-03-23T08:41:42;21.90;;;12.20;;
20415;SDS011;10367;52.202;5.996;2024-03-23T08:44:13;23.80;;;13.90;;
20415;SDS011;10367;52.202;5.996;2024-03-23T08:46:40;25.63;;;12.73;;
20415;SDS011;10367;52.202;5.996;2024-03-23T08:49:07;26.13;;;12.13;;
20415;SDS011;10367;52.202;5.996;2024-03-23T08:51:34;22.47;;;12.20;;
20415;SDS011;10367;52.202;5.996;2024-03-23T08:54:01;16.00;;;11.83;;
20415;SDS011;10367;52.202;5.996;2024-03-23T08:56:28;14.97;;;11.67;;
20415;SDS011;10367;52.202;5.996;2024-03-23T08:58:56;20.40;;;11.37;;
20415;SDS011;10367;52.202;5.996;2024-03-23T09:01:24;15.20;;;11.27;;
20415;SDS011;10367;52.202;5.996;2024-03-23T09:03:52;23.23;;;12.57;;
20415;SDS011;10367;52.202;5.996;2024-03-23T09:06:19;22.73;;;11.93;;
20415;SDS011;10367;52.202;5.996;2024-03-23T09:08:47;27.17;;;13.60;;
20415;SDS011;10367;52.202;5.996;2024-03-23T09:11:13;19.90;;;12.30;;
20415;SDS011;10367;52.202;5.996;2024-03-23T09:13:41;14.57;;;12.30;;
20415;SDS011;10367;52.202;5.996;2024-03-23T09:16:08;17.17;;;12.47;;
20415;SDS011;10367;52.202;5.996;2024-03-23T09:18:37;23.83;;;13.30;;
20415;SDS011;10367;52.202;5.996;2024-03-23T09:21:09;19.83;;;11.93;;
20415;SDS011;10367;52.202;5.996;2024-03-23T09:23:39;16.20;;;11.73;;
20415;SDS011;10367;52.202;5.996;2024-03-23T09:26:05;17.20;;;11.50;;
20415;SDS011;10367;52.202;5.996;2024-03-23T09:28:34;17.00;;;11.83;;
20415;SDS011;10367;52.202;5.996;2024-03-23T09:31:04;17.90;;;11.30;;
20415;SDS011;10367;52.202;5.996;2024-03-23T09:33:32;16.23;;;11.23;;
20415;SDS011;10367;52.202;5.996;2024-03-23T09:36:04;20.03;;;11.57;;
20415;SDS011;10367;52.202;5.996;2024-03-23T09:38:32;22.53;;;12.67;;
20415;SDS011;10367;52.202;5.996;2024-03-23T09:40:59;15.07;;;11.37;;
20415;SDS011;10367;52.202;5.996;2024-03-23T09:43:34;13.90;;;11.83;;
20415;SDS011;10367;52.202;5.996;2024-03-23T09:46:01;19.03;;;12.00;;
20415;SDS011;10367;52.202;5.996;2024-03-23T09:48:29;16.70;;;11.57;;
20415;SDS011;10367;52.202;5.996;2024-03-23T09:50:56;17.00;;;12.00;;
20415;SDS011;10367;52.202;5.996;2024-03-23T09:53:26;14.83;;;12.43;;
20415;SDS011;10367;52.202;5.996;2024-03-23T09:55:53;19.37;;;12.13;;
20415;SDS011;10367;52.202;5.996;2024-03-23T09:58:23;18.57;;;12.23;;
20415;SDS011;10367;52.202;5.996;2024-03-23T10:00:50;19.33;;;12.70;;
20415;SDS011;10367;52.202;5.996;2024-03-23T10:03:17;17.43;;;12.50;;
20415;SDS011;10367;52.202;5.996;2024-03-23T10:05:44;17.63;;;14.57;;
20415;SDS011;10367;52.202;5.996;2024-03-23T10:08:18;17.47;;;13.73;;
20415;SDS011;10367;52.202;5.996;2024-03-23T10:10:46;17.43;;;13.20;;
20415;SDS011;10367;52.202;5.996;2024-03-23T10:13:23;16.40;;;13.17;;
20415;SDS011;10367;52.202;5.996;2024-03-23T10:15:57;18.47;;;13.20;;
20415;SDS011;10367;52.202;5.996;2024-03-23T10:18:26;15.67;;;12.53;;
20415;SDS011;10367;52.202;5.996;2024-03-23T10:21:06;18.47;;;12.97;;
20415;SDS011;10367;52.202;5.996;2024-03-23T10:23:34;13.30;;;11.83;;
20415;SDS011;10367;52.202;5.996;2024-03-23T10:26:19;17.47;;;13.37;;
20415;SDS011;10367;52.202;5.996;2024-03-23T10:28:51;18.60;;;13.97;;
20415;SDS011;10367;52.202;5.996;2024-03-23T10:31:19;19.07;;;13.77;;
20415;SDS011;10367;52.202;5.996;2024-03-23T10:33:47;25.00;;;14.73;;
20415;SDS011;10367;52.202;5.996;2024-03-23T10:36:15;16.33;;;12.13;;
20415;SDS011;10367;52.202;5.996;2024-03-23T10:38:43;20.23;;;13.87;;
20415;SDS011;10367;52.202;5.996;2024-03-23T10:41:10;19.83;;;12.60;;
20415;SDS011;10367;52.202;5.996;2024-03-23T10:43:39;14.97;;;11.87;;
20415;SDS011;10367;52.202;5.996;2024-03-23T10:46:06;21.27;;;14.03;;
20415;SDS011;10367;52.202;5.996;2024-03-23T10:48:35;16.73;;;11.70;;
20415;SDS011;10367;52.202;5.996;2024-03-23T10:51:01;19.33;;;11.53;;
20415;SDS011;10367;52.202;5.996;2024-03-23T10:53:30;13.43;;;12.10;;
20415;SDS011;10367;52.202;5.996;2024-03-23T10:55:59;15.73;;;12.37;;
20415;SDS011;10367;52.202;5.996;2024-03-23T10:58:27;19.67;;;13.13;;
20415;SDS011;10367;52.202;5.996;2024-03-23T11:00:58;17.73;;;12.30;;
20415;SDS011;10367;52.202;5.996;2024-03-23T11:03:33;18.27;;;12.03;;
20415;SDS011;10367;52.202;5.996;2024-03-23T11:06:00;17.43;;;11.53;;
20415;SDS011;10367;52.202;5.996;2024-03-23T11:08:32;14.43;;;11.33;;
20415;SDS011;10367;52.202;5.996;2024-03-23T11:11:16;16.60;;;11.30;;
20415;SDS011;10367;52.202;5.996;2024-03-23T11:13:47;20.67;;;12.87;;
20415;SDS011;10367;52.202;5.996;2024-03-23T11:16:16;19.83;;;12.30;;
20415;SDS011;10367;52.202;5.996;2024-03-23T11:18:48;17.67;;;12.10;;
20415;SDS011;10367;52.202;5.996;2024-03-23T11:24:16;19.17;;;13.13;;
20415;SDS011;10367;52.202;5.996;2024-03-23T11:26:44;25.17;;;13.60;;
20415;SDS011;10367;52.202;5.996;2024-03-23T11:29:12;18.03;;;12.30;;
20415;SDS011;10367;52.202;5.996;2024-03-23T11:31:46;28.30;;;14.33;;
20415;SDS011;10367;52.202;5.996;2024-03-23T11:34:15;15.97;;;11.60;;
20415;SDS011;10367;52.202;5.996;2024-03-23T11:36:42;19.70;;;12.87;;
20415;SDS011;10367;52.202;5.996;2024-03-23T11:39:13;22.00;;;13.37;;
20415;SDS011;10367;52.202;5.996;2024-03-23T11:41:45;15.87;;;12.33;;
20415;SDS011;10367;52.202;5.996;2024-03-23T11:44:14;20.90;;;13.47;;
20415;SDS011;10367;52.202;5.996;2024-03-23T11:46:42;20.37;;;13.13;;
20415;SDS011;10367;52.202;5.996;2024-03-23T11:49:20;19.73;;;13.53;;
20415;SDS011;10367;52.202;5.996;2024-03-23T11:51:48;20.70;;;14.17;;
20415;SDS011;10367;52.202;5.996;2024-03-23T11:54:16;13.83;;;12.27;;
20415;SDS011;10367;52.202;5.996;2024-03-23T11:56:55;22.57;;;15.20;;
20415;SDS011;10367;52.202;5.996;2024-03-23T11:59:31;19.77;;;12.70;;
20415;SDS011;10367;52.202;5.996;2024-03-23T12:01:58;17.17;;;12.57;;
20415;SDS011;10367;52.202;5.996;2024-03-23T12:04:28;16.10;;;13.10;;
20415;SDS011;10367;52.202;5.996;2024-03-23T12:07:14;20.13;;;15.00;;
20415;SDS011;10367;52.202;5.996;2024-03-23T12:09:44;18.13;;;13.93;;
20415;SDS011;10367;52.202;5.996;2024-03-23T12:12:13;19.33;;;14.30;;
20415;SDS011;10367;52.202;5.996;2024-03-23T12:14:42;14.60;;;12.70;;
20415;SDS011;10367;52.202;5.996;2024-03-23T12:17:10;18.53;;;13.00;;
20415;SDS011;10367;52.202;5.996;2024-03-23T12:19:39;16.30;;;13.57;;
20415;SDS011;10367;52.202;5.996;2024-03-23T12:22:07;17.70;;;12.07;;
20415;SDS011;10367;52.202;5.996;2024-03-23T12:24:35;22.73;;;13.37;;
20415;SDS011;10367;52.202;5.996;2024-03-23T12:27:03;14.70;;;12.50;;
20415;SDS011;10367;52.202;5.996;2024-03-23T12:29:31;14.67;;;12.00;;
20415;SDS011;10367;52.202;5.996;2024-03-23T12:31:59;16.83;;;13.53;;
20415;SDS011;10367;52.202;5.996;2024-03-23T12:34:27;15.33;;;12.70;;
20415;SDS011;10367;52.202;5.996;2024-03-23T12:36:57;15.77;;;13.67;;
20415;SDS011;10367;52.202;5.996;2024-03-23T12:39:25;16.17;;;13.40;;
20415;SDS011;10367;52.202;5.996;2024-03-23T12:41:51;16.50;;;13.83;;
20415;SDS011;10367;52.202;5.996;2024-03-23T12:44:19;17.50;;;13.70;;
20415;SDS011;10367;52.202;5.996;2024-03-23T12:46:46;15.90;;;14.00;;
20415;SDS011;10367;52.202;5.996;2024-03-23T12:49:14;16.90;;;14.63;;
20415;SDS011;10367;52.202;5.996;2024-03-23T12:51:42;15.23;;;13.67;;
20415;SDS011;10367;52.202;5.996;2024-03-23T12:54:21;18.07;;;13.33;;
20415;SDS011;10367;52.202;5.996;2024-03-23T12:56:48;20.83;;;15.77;;
20415;SDS011;10367;52.202;5.996;2024-03-23T12:59:16;16.80;;;13.70;;
20415;SDS011;10367;52.202;5.996;2024-03-23T13:01:44;16.27;;;14.37;;
20415;SDS011;10367;52.202;5.996;2024-03-23T13:04:11;15.63;;;13.97;;
20415;SDS011;10367;52.202;5.996;2024-03-23T13:06:38;19.60;;;12.97;;
20415;SDS011;10367;52.202;5.996;2024-03-23T13:09:06;15.53;;;14.00;;
20415;SDS011;10367;52.202;5.996;2024-03-23T13:11:34;16.70;;;13.93;;
20415;SDS011;10367;52.202;5.996;2024-03-23T13:14:02;21.30;;;15.97;;
20415;SDS011;10367;52.202;5.996;2024-03-23T13:16:29;15.80;;;14.20;;
20415;SDS011;10367;52.202;5.996;2024-03-23T13:18:58;15.57;;;13.80;;
20415;SDS011;10367;52.202;5.996;2024-03-23T13:21:24;14.57;;;13.13;;
20415;SDS011;10367;52.202;5.996;2024-03-23T13:23:52;22.00;;;15.27;;
20415;SDS011;10367;52.202;5.996;2024-03-23T13:26:18;14.17;;;12.80;;
20415;SDS011;10367;52.202;5.996;2024-03-23T13:28:47;23.17;;;15.67;;
20415;SDS011;10367;52.202;5.996;2024-03-23T13:31:14;14.60;;;13.03;;
20415;SDS011;10367;52.202;5.996;2024-03-23T13:33:42;15.17;;;13.43;;
20415;SDS011;10367;52.202;5.996;2024-03-23T13:36:10;17.50;;;13.93;;
20415;SDS011;10367;52.202;5.996;2024-03-23T13:38:37;18.57;;;14.50;;
20415;SDS011;10367;52.202;5.996;2024-03-23T13:41:05;15.63;;;12.47;;
20415;SDS011;10367;52.202;5.996;2024-03-23T13:43:33;15.97;;;12.87;;
20415;SDS011;10367;52.202;5.996;2024-03-23T13:46:02;19.60;;;13.40;;
20415;SDS011;10367;52.202;5.996;2024-03-23T13:48:29;18.47;;;12.83;;
20415;SDS011;10367;52.202;5.996;2024-03-23T13:50:57;17.90;;;12.80;;
20415;SDS011;10367;52.202;5.996;2024-03-23T13:53:24;17.93;;;12.00;;
20415;SDS011;10367;52.202;5.996;2024-03-23T13:55:52;21.30;;;14.07;;
20415;SDS011;10367;52.202;5.996;2024-03-23T13:58:19;21.73;;;14.47;;
20415;SDS011;10367;52.202;5.996;2024-03-23T14:00:47;21.47;;;14.77;;
20415;SDS011;10367;52.202;5.996;2024-03-23T14:03:15;20.83;;;13.63;;
20415;SDS011;10367;52.202;5.996;2024-03-23T14:05:42;22.37;;;14.60;;
20415;SDS011;10367;52.202;5.996;2024-03-23T14:08:09;26.73;;;14.20;;
20415;SDS011;10367;52.202;5.996;2024-03-23T14:10:40;18.00;;;13.47;;
20415;SDS011;10367;52.202;5.996;2024-03-23T14:13:07;19.67;;;13.53;;
20415;SDS011;10367;52.202;5.996;2024-03-23T14:15:35;19.00;;;13.50;;
20415;SDS011;10367;52.202;5.996;2024-03-23T14:18:02;21.50;;;14.00;;
20415;SDS011;10367;52.202;5.996;2024-03-23T14:20:32;13.17;;;11.87;;
20415;SDS011;10367;52.202;5.996;2024-03-23T14:22:59;21.57;;;12.13;;
20415;SDS011;10367;52.202;5.996;2024-03-23T14:25:27;17.27;;;13.53;;
20415;SDS011;10367;52.202;5.996;2024-03-23T14:27:55;17.50;;;13.77;;
20415;SDS011;10367;52.202;5.996;2024-03-23T14:30:23;16.20;;;13.43;;
20415;SDS011;10367;52.202;5.996;2024-03-23T14:32:50;18.13;;;13.00;;
20415;SDS011;10367;52.202;5.996;2024-03-23T14:35:18;18.17;;;13.90;;
20415;SDS011;10367;52.202;5.996;2024-03-23T14:37:46;16.80;;;14.07;;
20415;SDS011;10367;52.202;5.996;2024-03-23T14:40:14;17.07;;;13.53;;
20415;SDS011;10367;52.202;5.996;2024-03-23T14:42:40;20.37;;;14.90;;
20415;SDS011;10367;52.202;5.996;2024-03-23T14:45:08;14.67;;;12.50;;
20415;SDS011;10367;52.202;5.996;2024-03-23T14:47:35;16.87;;;12.70;;
20415;SDS011;10367;52.202;5.996;2024-03-23T14:50:02;16.87;;;14.40;;
20415;SDS011;10367;52.202;5.996;2024-03-23T14:52:30;14.27;;;12.80;;
20415;SDS011;10367;52.202;5.996;2024-03-23T14:54:59;21.17;;;14.37;;
20415;SDS011;10367;52.202;5.996;2024-03-23T14:57:26;13.97;;;12.63;;
20415;SDS011;10367;52.202;5.996;2024-03-23T14:59:55;20.33;;;15.03;;
20415;SDS011;10367;52.202;5.996;2024-03-23T15:02:21;14.83;;;13.20;;
20415;SDS011;10367;52.202;5.996;2024-03-23T15:04:49;14.73;;;13.17;;
20415;SDS011;10367;52.202;5.996;2024-03-23T15:07:16;19.37;;;14.43;;
20415;SDS011;10367;52.202;5.996;2024-03-23T15:09:44;15.07;;;12.80;;
20415;SDS011;10367;52.202;5.996;2024-03-23T15:12:12;20.27;;;14.03;;
20415;SDS011;10367;52.202;5.996;2024-03-23T15:14:40;26.53;;;14.43;;
20415;SDS011;10367;52.202;5.996;2024-03-23T15:17:06;22.43;;;15.73;;
20415;SDS011;10367;52.202;5.996;2024-03-23T15:19:35;20.37;;;13.53;;
20415;SDS011;10367;52.202;5.996;2024-03-23T15:22:01;21.03;;;15.47;;